sensor_id;sensor_type;location;lat;lon;timestamp;temperature;humidity
25436;DHT22;13363;52.772;-3.890;2023-04-16T00:00:48;10.20;99.90
25436;DHT22;13363;52.772;-3.890;2023-04-16T00:03:14;10.10;99.90
25436;DHT22;13363;52.772;-3.890;2023-04-16T00:05:40;10.10;99.90
25436;DHT22;13363;52.772;-3.890;2023-04-16T00:08:06;10.10;99.90
25436;DHT22;13363;52.772;-3.890;2023-04-16T00:10:34;10.10;99.90
25436;DHT22;13363;52.772;-3.890;2023-04-16T00:13:00;10.10;99.90
25436;DHT22;13363;52.772;-3.890;2023-04-16T00:15:25;10.00;99.90
25436;DHT22;13363;52.772;-3.890;2023-04-16T00:17:51;10.00;99.90
25436;DHT22;13363;52.772;-3.890;2023-04-16T00:20:17;10.00;99.90
25436;DHT22;13363;52.772;-3.890;2023-04-16T00:22:45;10.00;99.90
25436;DHT22;13363;52.772;-3.890;2023-04-16T00:25:11;10.00;99.90
25436;DHT22;13363;52.772;-3.890;2023-04-16T00:27:37;10.00;99.90
25436;DHT22;13363;52.772;-3.890;2023-04-16T00:30:04;10.00;99.90
25436;DHT22;13363;52.772;-3.890;2023-04-16T00:32:30;10.10;99.90
25436;DHT22;13363;52.772;-3.890;2023-04-16T00:34:56;10.00;99.90
25436;DHT22;13363;52.772;-3.890;2023-04-16T00:37:21;10.00;99.90
25436;DHT22;13363;52.772;-3.890;2023-04-16T00:39:47;10.00;99.90
25436;DHT22;13363;52.772;-3.890;2023-04-16T00:42:13;9.90;99.90
25436;DHT22;13363;52.772;-3.890;2023-04-16T00:44:39;9.90;99.90
25436;DHT22;13363;52.772;-3.890;2023-04-16T00:47:05;9.90;99.90
25436;DHT22;13363;52.772;-3.890;2023-04-16T00:49:32;9.90;99.90
25436;DHT22;13363;52.772;-3.890;2023-04-16T00:51:58;9.90;99.90
25436;DHT22;13363;52.772;-3.890;2023-04-16T00:54:24;9.90;99.90
25436;DHT22;13363;52.772;-3.890;2023-04-16T00:56:50;9.90;99.90
25436;DHT22;13363;52.772;-3.890;2023-04-16T00:59:16;9.90;99.90
25436;DHT22;13363;52.772;-3.890;2023-04-16T01:01:42;9.90;99.90
25436;DHT22;13363;52.772;-3.890;2023-04-16T01:04:08;9.80;99.90
25436;DHT22;13363;52.772;-3.890;2023-04-16T01:06:34;9.80;99.90
25436;DHT22;13363;52.772;-3.890;2023-04-16T01:09:00;9.80;99.90
25436;DHT22;13363;52.772;-3.890;2023-04-16T01:11:26;9.70;99.90
25436;DHT22;13363;52.772;-3.890;2023-04-16T01:13:52;9.70;99.90
25436;DHT22;13363;52.772;-3.890;2023-04-16T01:16:18;9.70;99.90
25436;DHT22;13363;52.772;-3.890;2023-04-16T01:18:44;9.70;99.90
25436;DHT22;13363;52.772;-3.890;2023-04-16T01:21:09;9.70;99.90
25436;DHT22;13363;52.772;-3.890;2023-04-16T01:23:35;9.60;99.90
25436;DHT22;13363;52.772;-3.890;2023-04-16T01:26:01;9.60;99.90
25436;DHT22;13363;52.772;-3.890;2023-04-16T01:28:27;9.60;99.90
25436;DHT22;13363;52.772;-3.890;2023-04-16T01:30:53;9.60;99.90
25436;DHT22;13363;52.772;-3.890;2023-04-16T01:33:21;9.60;99.90
25436;DHT22;13363;52.772;-3.890;2023-04-16T01:35:46;9.70;99.90
25436;DHT22;13363;52.772;-3.890;2023-04-16T01:38:12;9.60;99.90
25436;DHT22;13363;52.772;-3.890;2023-04-16T01:40:38;9.60;99.90
25436;DHT22;13363;52.772;-3.890;2023-04-16T01:43:04;9.50;99.90
25436;DHT22;13363;52.772;-3.890;2023-04-16T01:45:33;9.50;99.90
25436;DHT22;13363;52.772;-3.890;2023-04-16T01:47:59;9.50;99.90
25436;DHT22;13363;52.772;-3.890;2023-04-16T01:50:25;9.50;99.90
25436;DHT22;13363;52.772;-3.890;2023-04-16T01:52:51;9.50;99.90
25436;DHT22;13363;52.772;-3.890;2023-04-16T01:55:17;9.60;99.90
25436;DHT22;13363;52.772;-3.890;2023-04-16T01:57:43;9.60;99.90
25436;DHT22;13363;52.772;-3.890;2023-04-16T02:00:09;9.60;99.90
25436;DHT22;13363;52.772;-3.890;2023-04-16T02:02:36;9.60;99.90
25436;DHT22;13363;52.772;-3.890;2023-04-16T02:05:02;9.60;99.90
25436;DHT22;13363;52.772;-3.890;2023-04-16T02:07:28;9.50;99.90
25436;DHT22;13363;52.772;-3.890;2023-04-16T02:09:56;9.50;99.90
25436;DHT22;13363;52.772;-3.890;2023-04-16T02:12:22;9.40;99.90
25436;DHT22;13363;52.772;-3.890;2023-04-16T02:14:48;9.40;99.90
25436;DHT22;13363;52.772;-3.890;2023-04-16T02:17:14;9.40;99.90
25436;DHT22;13363;52.772;-3.890;2023-04-16T02:19:41;9.40;99.90
25436;DHT22;13363;52.772;-3.890;2023-04-16T02:22:07;9.30;99.90
25436;DHT22;13363;52.772;-3.890;2023-04-16T02:24:33;9.30;99.90
25436;DHT22;13363;52.772;-3.890;2023-04-16T02:26:58;9.30;99.90
25436;DHT22;13363;52.772;-3.890;2023-04-16T02:29:25;9.30;99.90
25436;DHT22;13363;52.772;-3.890;2023-04-16T02:31:51;9.50;99.90
25436;DHT22;13363;52.772;-3.890;2023-04-16T02:34:16;9.50;99.90
25436;DHT22;13363;52.772;-3.890;2023-04-16T02:36:42;9.50;99.90
25436;DHT22;13363;52.772;-3.890;2023-04-16T02:39:08;9.50;99.90
25436;DHT22;13363;52.772;-3.890;2023-04-16T02:41:34;9.60;99.90
25436;DHT22;13363;52.772;-3.890;2023-04-16T02:44:00;9.50;99.90
25436;DHT22;13363;52.772;-3.890;2023-04-16T02:46:26;9.40;99.90
25436;DHT22;13363;52.772;-3.890;2023-04-16T02:48:52;9.40;99.90
25436;DHT22;13363;52.772;-3.890;2023-04-16T02:51:18;9.40;99.90
25436;DHT22;13363;52.772;-3.890;2023-04-16T02:53:44;9.40;99.90
25436;DHT22;13363;52.772;-3.890;2023-04-16T02:56:11;9.40;99.90
25436;DHT22;13363;52.772;-3.890;2023-04-16T02:58:37;9.40;99.90
25436;DHT22;13363;52.772;-3.890;2023-04-16T03:01:03;9.40;99.90
25436;DHT22;13363;52.772;-3.890;2023-04-16T03:03:29;9.40;99.90
25436;DHT22;13363;52.772;-3.890;2023-04-16T03:05:55;9.30;99.90
25436;DHT22;13363;52.772;-3.890;2023-04-16T03:08:21;9.40;99.90
25436;DHT22;13363;52.772;-3.890;2023-04-16T03:10:47;9.40;99.90
25436;DHT22;13363;52.772;-3.890;2023-04-16T03:13:12;9.40;99.90
25436;DHT22;13363;52.772;-3.890;2023-04-16T03:15:38;9.40;99.90
25436;DHT22;13363;52.772;-3.890;2023-04-16T03:18:05;9.30;99.90
25436;DHT22;13363;52.772;-3.890;2023-04-16T03:20:30;9.30;99.90
25436;DHT22;13363;52.772;-3.890;2023-04-16T03:22:56;9.20;99.90
25436;DHT22;13363;52.772;-3.890;2023-04-16T03:25:22;9.20;99.90
25436;DHT22;13363;52.772;-3.890;2023-04-16T03:27:48;9.20;99.90
25436;DHT22;13363;52.772;-3.890;2023-04-16T03:30:15;9.10;99.90
25436;DHT22;13363;52.772;-3.890;2023-04-16T03:32:41;9.10;99.90
25436;DHT22;13363;52.772;-3.890;2023-04-16T03:35:08;9.10;99.90
25436;DHT22;13363;52.772;-3.890;2023-04-16T03:37:34;9.10;99.90
25436;DHT22;13363;52.772;-3.890;2023-04-16T03:40:00;9.10;99.90
25436;DHT22;13363;52.772;-3.890;2023-04-16T03:42:26;9.10;99.90
25436;DHT22;13363;52.772;-3.890;2023-04-16T03:44:52;9.20;99.90
25436;DHT22;13363;52.772;-3.890;2023-04-16T03:47:20;9.30;99.90
25436;DHT22;13363;52.772;-3.890;2023-04-16T03:49:46;9.30;99.90
25436;DHT22;13363;52.772;-3.890;2023-04-16T03:52:12;9.20;99.90
25436;DHT22;13363;52.772;-3.890;2023-04-16T03:54:38;9.20;99.90
25436;DHT22;13363;52.772;-3.890;2023-04-16T03:57:04;9.20;99.90
25436;DHT22;13363;52.772;-3.890;2023-04-16T03:59:29;9.20;99.90
25436;DHT22;13363;52.772;-3.890;2023-04-16T04:01:55;9.20;99.90
25436;DHT22;13363;52.772;-3.890;2023-04-16T04:04:21;9.20;99.90
25436;DHT22;13363;52.772;-3.890;2023-04-16T04:06:47;9.20;99.90
25436;DHT22;13363;52.772;-3.890;2023-04-16T04:09:13;9.20;99.90
25436;DHT22;13363;52.772;-3.890;2023-04-16T04:11:41;9.20;99.90
25436;DHT22;13363;52.772;-3.890;2023-04-16T04:14:07;9.10;99.90
25436;DHT22;13363;52.772;-3.890;2023-04-16T04:16:33;9.20;99.90
25436;DHT22;13363;52.772;-3.890;2023-04-16T04:18:59;9.20;99.90
25436;DHT22;13363;52.772;-3.890;2023-04-16T04:21:26;9.20;99.90
25436;DHT22;13363;52.772;-3.890;2023-04-16T04:23:53;9.20;99.90
25436;DHT22;13363;52.772;-3.890;2023-04-16T04:26:18;9.10;99.90
25436;DHT22;13363;52.772;-3.890;2023-04-16T04:28:45;9.20;99.90
25436;DHT22;13363;52.772;-3.890;2023-04-16T04:31:12;9.20;99.90
25436;DHT22;13363;52.772;-3.890;2023-04-16T04:33:38;9.20;99.90
25436;DHT22;13363;52.772;-3.890;2023-04-16T04:36:04;9.10;99.90
25436;DHT22;13363;52.772;-3.890;2023-04-16T04:38:30;9.10;99.90
25436;DHT22;13363;52.772;-3.890;2023-04-16T04:40:56;9.10;99.90
25436;DHT22;13363;52.772;-3.890;2023-04-16T04:43:22;9.10;99.90
25436;DHT22;13363;52.772;-3.890;2023-04-16T04:45:48;9.00;99.90
25436;DHT22;13363;52.772;-3.890;2023-04-16T04:48:14;9.00;99.90
25436;DHT22;13363;52.772;-3.890;2023-04-16T04:50:41;9.00;99.90
25436;DHT22;13363;52.772;-3.890;2023-04-16T04:53:07;9.00;99.90
25436;DHT22;13363;52.772;-3.890;2023-04-16T04:55:37;9.00;99.90
25436;DHT22;13363;52.772;-3.890;2023-04-16T04:58:06;9.10;99.90
25436;DHT22;13363;52.772;-3.890;2023-04-16T05:00:33;9.10;99.90
25436;DHT22;13363;52.772;-3.890;2023-04-16T05:03:04;9.00;99.90
25436;DHT22;13363;52.772;-3.890;2023-04-16T05:05:30;9.00;99.90
25436;DHT22;13363;52.772;-3.890;2023-04-16T05:07:56;9.00;99.90
25436;DHT22;13363;52.772;-3.890;2023-04-16T05:10:22;9.00;99.90
25436;DHT22;13363;52.772;-3.890;2023-04-16T05:12:48;9.00;99.90
25436;DHT22;13363;52.772;-3.890;2023-04-16T05:15:14;9.10;99.90
25436;DHT22;13363;52.772;-3.890;2023-04-16T05:17:40;9.00;99.90
25436;DHT22;13363;52.772;-3.890;2023-04-16T05:20:07;8.90;99.90
25436;DHT22;13363;52.772;-3.890;2023-04-16T05:22:34;8.90;99.90
25436;DHT22;13363;52.772;-3.890;2023-04-16T05:25:00;8.90;99.90
25436;DHT22;13363;52.772;-3.890;2023-04-16T05:27:25;9.10;99.90
25436;DHT22;13363;52.772;-3.890;2023-04-16T05:29:51;9.10;99.90
25436;DHT22;13363;52.772;-3.890;2023-04-16T05:32:17;9.10;99.90
25436;DHT22;13363;52.772;-3.890;2023-04-16T05:34:43;9.00;99.90
25436;DHT22;13363;52.772;-3.890;2023-04-16T05:37:08;9.10;99.90
25436;DHT22;13363;52.772;-3.890;2023-04-16T05:39:34;9.00;99.90
25436;DHT22;13363;52.772;-3.890;2023-04-16T05:42:00;9.00;99.90
25436;DHT22;13363;52.772;-3.890;2023-04-16T05:44:26;9.00;99.90
25436;DHT22;13363;52.772;-3.890;2023-04-16T05:46:52;9.00;99.90
25436;DHT22;13363;52.772;-3.890;2023-04-16T05:49:18;9.10;99.90
25436;DHT22;13363;52.772;-3.890;2023-04-16T05:51:44;9.10;99.90
25436;DHT22;13363;52.772;-3.890;2023-04-16T05:54:10;9.10;99.90
25436;DHT22;13363;52.772;-3.890;2023-04-16T05:56:36;9.10;99.90
25436;DHT22;13363;52.772;-3.890;2023-04-16T05:59:02;9.10;99.90
25436;DHT22;13363;52.772;-3.890;2023-04-16T06:01:27;9.10;99.90
25436;DHT22;13363;52.772;-3.890;2023-04-16T06:03:53;9.10;99.90
25436;DHT22;13363;52.772;-3.890;2023-04-16T06:06:19;9.20;99.90
25436;DHT22;13363;52.772;-3.890;2023-04-16T06:08:45;9.10;99.90
25436;DHT22;13363;52.772;-3.890;2023-04-16T06:11:10;9.00;99.90
25436;DHT22;13363;52.772;-3.890;2023-04-16T06:13:37;9.00;99.90
25436;DHT22;13363;52.772;-3.890;2023-04-16T06:16:03;9.10;99.90
25436;DHT22;13363;52.772;-3.890;2023-04-16T06:18:29;9.10;99.90
25436;DHT22;13363;52.772;-3.890;2023-04-16T06:20:55;9.30;99.90
25436;DHT22;13363;52.772;-3.890;2023-04-16T06:23:23;9.20;99.90
25436;DHT22;13363;52.772;-3.890;2023-04-16T06:25:49;9.20;99.90
25436;DHT22;13363;52.772;-3.890;2023-04-16T06:28:15;9.20;99.90
25436;DHT22;13363;52.772;-3.890;2023-04-16T06:30:40;9.20;99.90
25436;DHT22;13363;52.772;-3.890;2023-04-16T06:33:06;9.30;99.90
25436;DHT22;13363;52.772;-3.890;2023-04-16T06:35:35;9.30;99.90
25436;DHT22;13363;52.772;-3.890;2023-04-16T06:38:01;9.30;99.90
25436;DHT22;13363;52.772;-3.890;2023-04-16T06:40:26;9.30;99.90
25436;DHT22;13363;52.772;-3.890;2023-04-16T06:42:52;9.40;99.90
25436;DHT22;13363;52.772;-3.890;2023-04-16T06:45:18;9.40;99.90
25436;DHT22;13363;52.772;-3.890;2023-04-16T06:47:44;9.40;99.90
25436;DHT22;13363;52.772;-3.890;2023-04-16T06:50:10;9.40;99.90
25436;DHT22;13363;52.772;-3.890;2023-04-16T06:52:36;9.40;99.90
25436;DHT22;13363;52.772;-3.890;2023-04-16T06:55:02;9.40;99.90
25436;DHT22;13363;52.772;-3.890;2023-04-16T06:57:28;9.50;99.90
25436;DHT22;13363;52.772;-3.890;2023-04-16T06:59:54;9.50;99.90
25436;DHT22;13363;52.772;-3.890;2023-04-16T07:02:19;9.50;99.90
25436;DHT22;13363;52.772;-3.890;2023-04-16T07:04:45;9.40;99.90
25436;DHT22;13363;52.772;-3.890;2023-04-16T07:07:11;9.50;99.90
25436;DHT22;13363;52.772;-3.890;2023-04-16T07:09:38;9.50;99.90
25436;DHT22;13363;52.772;-3.890;2023-04-16T07:12:05;9.50;99.90
25436;DHT22;13363;52.772;-3.890;2023-04-16T07:14:31;9.60;99.90
25436;DHT22;13363;52.772;-3.890;2023-04-16T07:16:57;9.60;99.90
25436;DHT22;13363;52.772;-3.890;2023-04-16T07:19:23;9.50;99.90
25436;DHT22;13363;52.772;-3.890;2023-04-16T07:21:49;9.60;99.90
25436;DHT22;13363;52.772;-3.890;2023-04-16T07:24:14;9.60;99.90
25436;DHT22;13363;52.772;-3.890;2023-04-16T07:26:40;9.60;99.90
25436;DHT22;13363;52.772;-3.890;2023-04-16T07:29:06;9.50;99.90
25436;DHT22;13363;52.772;-3.890;2023-04-16T07:31:32;9.50;99.90
25436;DHT22;13363;52.772;-3.890;2023-04-16T07:33:58;9.60;99.90
25436;DHT22;13363;52.772;-3.890;2023-04-16T07:36:25;9.70;99.90
25436;DHT22;13363;52.772;-3.890;2023-04-16T07:38:52;9.60;99.90
25436;DHT22;13363;52.772;-3.890;2023-04-16T07:41:18;9.60;99.90
25436;DHT22;13363;52.772;-3.890;2023-04-16T07:43:44;9.70;99.90
25436;DHT22;13363;52.772;-3.890;2023-04-16T07:46:10;9.80;99.90
25436;DHT22;13363;52.772;-3.890;2023-04-16T07:48:37;9.90;99.90
25436;DHT22;13363;52.772;-3.890;2023-04-16T07:51:03;9.90;99.90
25436;DHT22;13363;52.772;-3.890;2023-04-16T07:53:30;9.90;99.90
25436;DHT22;13363;52.772;-3.890;2023-04-16T07:55:56;10.00;99.90
25436;DHT22;13363;52.772;-3.890;2023-04-16T07:58:22;10.00;99.90
25436;DHT22;13363;52.772;-3.890;2023-04-16T08:00:48;10.00;99.90
25436;DHT22;13363;52.772;-3.890;2023-04-16T08:03:14;9.90;99.90
25436;DHT22;13363;52.772;-3.890;2023-04-16T08:05:40;9.90;99.90
25436;DHT22;13363;52.772;-3.890;2023-04-16T08:08:06;9.90;99.90
25436;DHT22;13363;52.772;-3.890;2023-04-16T08:10:32;10.00;99.90
25436;DHT22;13363;52.772;-3.890;2023-04-16T08:13:00;10.10;99.90
25436;DHT22;13363;52.772;-3.890;2023-04-16T08:15:26;10.10;99.90
25436;DHT22;13363;52.772;-3.890;2023-04-16T08:17:52;10.10;99.90
25436;DHT22;13363;52.772;-3.890;2023-04-16T08:20:18;10.10;99.90
25436;DHT22;13363;52.772;-3.890;2023-04-16T08:22:45;10.10;99.90
25436;DHT22;13363;52.772;-3.890;2023-04-16T08:25:11;10.20;99.90
25436;DHT22;13363;52.772;-3.890;2023-04-16T08:27:37;10.20;99.90
25436;DHT22;13363;52.772;-3.890;2023-04-16T08:30:03;10.20;99.90
25436;DHT22;13363;52.772;-3.890;2023-04-16T08:32:32;10.40;99.90
25436;DHT22;13363;52.772;-3.890;2023-04-16T08:35:00;10.50;99.90
25436;DHT22;13363;52.772;-3.890;2023-04-16T08:37:26;10.60;99.90
25436;DHT22;13363;52.772;-3.890;2023-04-16T08:39:51;10.70;99.90
25436;DHT22;13363;52.772;-3.890;2023-04-16T08:42:44;10.80;99.90
25436;DHT22;13363;52.772;-3.890;2023-04-16T08:45:15;10.90;99.90
25436;DHT22;13363;52.772;-3.890;2023-04-16T08:47:44;10.80;99.90
25436;DHT22;13363;52.772;-3.890;2023-04-16T08:50:14;10.80;99.90
25436;DHT22;13363;52.772;-3.890;2023-04-16T08:52:52;10.80;99.90
25436;DHT22;13363;52.772;-3.890;2023-04-16T08:55:21;10.90;99.90
25436;DHT22;13363;52.772;-3.890;2023-04-16T08:57:53;11.10;99.90
25436;DHT22;13363;52.772;-3.890;2023-04-16T09:00:23;11.00;99.90
25436;DHT22;13363;52.772;-3.890;2023-04-16T09:02:49;11.10;99.90
25436;DHT22;13363;52.772;-3.890;2023-04-16T09:05:16;11.10;99.90
25436;DHT22;13363;52.772;-3.890;2023-04-16T09:07:44;11.20;99.90
25436;DHT22;13363;52.772;-3.890;2023-04-16T09:10:11;11.20;99.90
25436;DHT22;13363;52.772;-3.890;2023-04-16T09:12:39;11.10;99.90
25436;DHT22;13363;52.772;-3.890;2023-04-16T09:15:06;11.20;99.90
25436;DHT22;13363;52.772;-3.890;2023-04-16T09:17:33;11.30;99.90
25436;DHT22;13363;52.772;-3.890;2023-04-16T09:19:59;11.60;99.90
25436;DHT22;13363;52.772;-3.890;2023-04-16T09:22:25;11.70;99.90
25436;DHT22;13363;52.772;-3.890;2023-04-16T09:24:51;12.00;99.90
25436;DHT22;13363;52.772;-3.890;2023-04-16T09:27:16;12.10;99.90
25436;DHT22;13363;52.772;-3.890;2023-04-16T09:29:42;12.10;99.90
25436;DHT22;13363;52.772;-3.890;2023-04-16T09:32:10;12.10;99.90
25436;DHT22;13363;52.772;-3.890;2023-04-16T09:34:58;12.20;99.90
25436;DHT22;13363;52.772;-3.890;2023-04-16T09:37:26;12.10;99.90
25436;DHT22;13363;52.772;-3.890;2023-04-16T09:39:58;12.20;99.90
25436;DHT22;13363;52.772;-3.890;2023-04-16T09:42:26;12.30;99.90
25436;DHT22;13363;52.772;-3.890;2023-04-16T09:44:53;12.40;99.90
25436;DHT22;13363;52.772;-3.890;2023-04-16T09:47:20;12.50;99.90
25436;DHT22;13363;52.772;-3.890;2023-04-16T09:49:47;12.50;99.90
25436;DHT22;13363;52.772;-3.890;2023-04-16T09:52:21;12.60;99.90
25436;DHT22;13363;52.772;-3.890;2023-04-16T09:54:52;12.60;99.90
25436;DHT22;13363;52.772;-3.890;2023-04-16T09:57:22;12.50;99.90
25436;DHT22;13363;52.772;-3.890;2023-04-16T09:59:53;12.50;99.90
25436;DHT22;13363;52.772;-3.890;2023-04-16T10:02:19;12.50;99.90
25436;DHT22;13363;52.772;-3.890;2023-04-16T10:04:50;12.50;99.90
25436;DHT22;13363;52.772;-3.890;2023-04-16T10:07:16;12.50;99.90
25436;DHT22;13363;52.772;-3.890;2023-04-16T10:09:45;12.40;99.90
25436;DHT22;13363;52.772;-3.890;2023-04-16T10:12:11;12.40;99.90
25436;DHT22;13363;52.772;-3.890;2023-04-16T10:14:37;12.40;99.90
25436;DHT22;13363;52.772;-3.890;2023-04-16T10:17:03;12.40;99.90
25436;DHT22;13363;52.772;-3.890;2023-04-16T10:19:31;12.40;99.90
25436;DHT22;13363;52.772;-3.890;2023-04-16T10:21:57;12.50;99.90
25436;DHT22;13363;52.772;-3.890;2023-04-16T10:24:24;12.50;99.90
25436;DHT22;13363;52.772;-3.890;2023-04-16T10:26:54;12.40;99.90
25436;DHT22;13363;52.772;-3.890;2023-04-16T10:29:21;12.40;99.90
25436;DHT22;13363;52.772;-3.890;2023-04-16T10:31:48;12.50;99.90
25436;DHT22;13363;52.772;-3.890;2023-04-16T10:34:36;12.50;99.90
25436;DHT22;13363;52.772;-3.890;2023-04-16T10:37:02;12.40;99.90
25436;DHT22;13363;52.772;-3.890;2023-04-16T10:39:28;12.30;99.90
25436;DHT22;13363;52.772;-3.890;2023-04-16T10:42:10;12.20;99.90
25436;DHT22;13363;52.772;-3.890;2023-04-16T10:44:38;12.20;99.90
25436;DHT22;13363;52.772;-3.890;2023-04-16T10:47:13;12.20;99.90
25436;DHT22;13363;52.772;-3.890;2023-04-16T10:49:40;12.20;99.90
25436;DHT22;13363;52.772;-3.890;2023-04-16T10:52:13;12.10;99.90
25436;DHT22;13363;52.772;-3.890;2023-04-16T10:54:41;12.10;99.90
25436;DHT22;13363;52.772;-3.890;2023-04-16T10:57:09;12.10;99.90
25436;DHT22;13363;52.772;-3.890;2023-04-16T10:59:37;12.10;99.90
25436;DHT22;13363;52.772;-3.890;2023-04-16T11:02:11;12.20;99.90
25436;DHT22;13363;52.772;-3.890;2023-04-16T11:04:38;12.20;99.90
25436;DHT22;13363;52.772;-3.890;2023-04-16T11:09:54;12.20;99.90
25436;DHT22;13363;52.772;-3.890;2023-04-16T11:12:23;12.30;99.90
25436;DHT22;13363;52.772;-3.890;2023-04-16T11:15:00;12.30;99.90
25436;DHT22;13363;52.772;-3.890;2023-04-16T11:18:09;12.30;99.90
25436;DHT22;13363;52.772;-3.890;2023-04-16T11:20:28;12.30;99.90
25436;DHT22;13363;52.772;-3.890;2023-04-16T11:22:55;12.40;99.90
25436;DHT22;13363;52.772;-3.890;2023-04-16T11:25:29;12.40;99.90
25436;DHT22;13363;52.772;-3.890;2023-04-16T11:27:56;12.50;99.90
25436;DHT22;13363;52.772;-3.890;2023-04-16T11:30:35;12.50;99.90
25436;DHT22;13363;52.772;-3.890;2023-04-16T11:33:04;12.40;99.90
25436;DHT22;13363;52.772;-3.890;2023-04-16T11:35:32;12.40;99.90
25436;DHT22;13363;52.772;-3.890;2023-04-16T11:37:58;12.40;99.90
25436;DHT22;13363;52.772;-3.890;2023-04-16T11:40:24;12.40;99.90
25436;DHT22;13363;52.772;-3.890;2023-04-16T11:42:54;12.40;99.90
25436;DHT22;13363;52.772;-3.890;2023-04-16T11:45:19;12.40;99.90
25436;DHT22;13363;52.772;-3.890;2023-04-16T11:47:48;12.50;99.90
25436;DHT22;13363;52.772;-3.890;2023-04-16T11:50:22;12.50;99.90
25436;DHT22;13363;52.772;-3.890;2023-04-16T11:52:49;12.50;99.90
25436;DHT22;13363;52.772;-3.890;2023-04-16T11:55:16;12.50;99.90
25436;DHT22;13363;52.772;-3.890;2023-04-16T11:57:41;12.50;99.90
25436;DHT22;13363;52.772;-3.890;2023-04-16T12:00:08;12.60;99.90
25436;DHT22;13363;52.772;-3.890;2023-04-16T12:02:40;12.60;99.90
25436;DHT22;13363;52.772;-3.890;2023-04-16T12:08:08;12.70;99.90
25436;DHT22;13363;52.772;-3.890;2023-04-16T12:10:52;12.60;99.90
25436;DHT22;13363;52.772;-3.890;2023-04-16T12:13:18;12.50;99.90
25436;DHT22;13363;52.772;-3.890;2023-04-16T12:15:54;12.60;99.90
25436;DHT22;13363;52.772;-3.890;2023-04-16T12:18:22;12.70;99.90
25436;DHT22;13363;52.772;-3.890;2023-04-16T12:20:49;12.70;99.90
25436;DHT22;13363;52.772;-3.890;2023-04-16T12:23:29;12.70;99.90
25436;DHT22;13363;52.772;-3.890;2023-04-16T12:25:56;12.70;99.90
25436;DHT22;13363;52.772;-3.890;2023-04-16T12:28:36;12.70;99.90
25436;DHT22;13363;52.772;-3.890;2023-04-16T12:31:03;12.80;99.90
25436;DHT22;13363;52.772;-3.890;2023-04-16T12:33:30;12.80;99.90
25436;DHT22;13363;52.772;-3.890;2023-04-16T12:35:57;12.80;99.90
25436;DHT22;13363;52.772;-3.890;2023-04-16T12:38:23;12.90;99.90
25436;DHT22;13363;52.772;-3.890;2023-04-16T12:40:50;12.90;99.90
25436;DHT22;13363;52.772;-3.890;2023-04-16T12:43:16;12.90;99.90
25436;DHT22;13363;52.772;-3.890;2023-04-16T12:45:42;12.90;99.90
25436;DHT22;13363;52.772;-3.890;2023-04-16T12:48:08;12.80;99.90
25436;DHT22;13363;52.772;-3.890;2023-04-16T12:50:37;12.90;99.90
25436;DHT22;13363;52.772;-3.890;2023-04-16T12:53:04;12.90;99.90
25436;DHT22;13363;52.772;-3.890;2023-04-16T12:55:30;12.90;99.90
25436;DHT22;13363;52.772;-3.890;2023-04-16T12:57:56;13.00;99.90
25436;DHT22;13363;52.772;-3.890;2023-04-16T13:00:47;13.00;99.90
25436;DHT22;13363;52.772;-3.890;2023-04-16T13:03:17;13.00;99.90
25436;DHT22;13363;52.772;-3.890;2023-04-16T13:05:45;13.00;99.90
25436;DHT22;13363;52.772;-3.890;2023-04-16T13:08:11;13.00;99.90
25436;DHT22;13363;52.772;-3.890;2023-04-16T13:10:37;13.00;99.90
25436;DHT22;13363;52.772;-3.890;2023-04-16T13:13:04;13.00;99.90
25436;DHT22;13363;52.772;-3.890;2023-04-16T13:15:29;13.00;99.90
25436;DHT22;13363;52.772;-3.890;2023-04-16T13:17:56;13.00;99.90
25436;DHT22;13363;52.772;-3.890;2023-04-16T13:20:21;13.10;99.90
25436;DHT22;13363;52.772;-3.890;2023-04-16T13:22:47;13.00;99.90
25436;DHT22;13363;52.772;-3.890;2023-04-16T13:25:13;13.00;99.90
25436;DHT22;13363;52.772;-3.890;2023-04-16T13:27:39;13.00;99.90
25436;DHT22;13363;52.772;-3.890;2023-04-16T13:30:05;13.10;99.90
25436;DHT22;13363;52.772;-3.890;2023-04-16T13:32:33;13.10;99.90
25436;DHT22;13363;52.772;-3.890;2023-04-16T13:34:59;13.10;99.90
25436;DHT22;13363;52.772;-3.890;2023-04-16T13:37:25;13.10;99.90
25436;DHT22;13363;52.772;-3.890;2023-04-16T13:39:51;13.20;99.90
25436;DHT22;13363;52.772;-3.890;2023-04-16T13:42:17;13.20;99.90
25436;DHT22;13363;52.772;-3.890;2023-04-16T13:44:43;13.30;99.90
25436;DHT22;13363;52.772;-3.890;2023-04-16T13:47:13;13.40;99.90
25436;DHT22;13363;52.772;-3.890;2023-04-16T13:49:39;13.50;99.90
25436;DHT22;13363;52.772;-3.890;2023-04-16T13:52:05;13.50;99.90
25436;DHT22;13363;52.772;-3.890;2023-04-16T13:54:31;13.70;99.90
25436;DHT22;13363;52.772;-3.890;2023-04-16T13:56:56;13.70;99.90
25436;DHT22;13363;52.772;-3.890;2023-04-16T13:59:22;13.80;99.90
25436;DHT22;13363;52.772;-3.890;2023-04-16T14:01:48;13.80;99.90
25436;DHT22;13363;52.772;-3.890;2023-04-16T14:04:14;13.90;99.90
25436;DHT22;13363;52.772;-3.890;2023-04-16T14:06:40;13.80;99.90
25436;DHT22;13363;52.772;-3.890;2023-04-16T14:09:05;13.90;99.90
25436;DHT22;13363;52.772;-3.890;2023-04-16T14:11:31;13.90;99.90
25436;DHT22;13363;52.772;-3.890;2023-04-16T14:13:57;14.00;99.90
25436;DHT22;13363;52.772;-3.890;2023-04-16T14:16:23;14.00;99.90
25436;DHT22;13363;52.772;-3.890;2023-04-16T14:18:49;14.00;99.90
25436;DHT22;13363;52.772;-3.890;2023-04-16T14:21:16;13.90;99.90
25436;DHT22;13363;52.772;-3.890;2023-04-16T14:23:42;14.00;99.90
25436;DHT22;13363;52.772;-3.890;2023-04-16T14:26:07;14.00;99.90
25436;DHT22;13363;52.772;-3.890;2023-04-16T14:28:33;14.10;99.90
25436;DHT22;13363;52.772;-3.890;2023-04-16T14:31:00;14.10;99.90
25436;DHT22;13363;52.772;-3.890;2023-04-16T14:33:26;14.10;99.90
25436;DHT22;13363;52.772;-3.890;2023-04-16T14:35:52;14.10;99.90
25436;DHT22;13363;52.772;-3.890;2023-04-16T14:38:18;14.10;99.90
25436;DHT22;13363;52.772;-3.890;2023-04-16T14:40:45;14.20;99.90
25436;DHT22;13363;52.772;-3.890;2023-04-16T14:43:11;14.10;99.90
25436;DHT22;13363;52.772;-3.890;2023-04-16T14:45:36;14.00;99.90
25436;DHT22;13363;52.772;-3.890;2023-04-16T14:48:02;13.90;99.90
25436;DHT22;13363;52.772;-3.890;2023-04-16T14:50:28;13.90;99.90
25436;DHT22;13363;52.772;-3.890;2023-04-16T14:52:54;13.80;99.90
25436;DHT22;13363;52.772;-3.890;2023-04-16T14:55:20;13.80;99.90
25436;DHT22;13363;52.772;-3.890;2023-04-16T14:57:46;13.70;99.90
25436;DHT22;13363;52.772;-3.890;2023-04-16T15:00:13;13.60;99.90
25436;DHT22;13363;52.772;-3.890;2023-04-16T15:02:42;13.70;99.90
25436;DHT22;13363;52.772;-3.890;2023-04-16T15:05:08;13.70;99.90
25436;DHT22;13363;52.772;-3.890;2023-04-16T15:07:35;13.70;99.90
25436;DHT22;13363;52.772;-3.890;2023-04-16T15:10:01;13.80;99.90
25436;DHT22;13363;52.772;-3.890;2023-04-16T15:12:27;13.80;99.90
25436;DHT22;13363;52.772;-3.890;2023-04-16T15:14:53;13.90;99.90
25436;DHT22;13363;52.772;-3.890;2023-04-16T15:17:19;13.80;99.90
25436;DHT22;13363;52.772;-3.890;2023-04-16T15:19:45;13.80;99.90
25436;DHT22;13363;52.772;-3.890;2023-04-16T15:22:12;13.80;99.90
25436;DHT22;13363;52.772;-3.890;2023-04-16T15:24:39;13.80;99.90
25436;DHT22;13363;52.772;-3.890;2023-04-16T15:27:05;13.70;99.90